createdAt,value
2023-10-02T00:01:12.067Z,26.10
2023-10-02T00:03:43.404Z,26.20
2023-10-02T00:06:12.420Z,26.20
2023-10-02T00:08:53.663Z,26.20
2023-10-02T00:11:40.534Z,26.20
2023-10-02T00:14:25.014Z,26.20
2023-10-02T00:17:06.046Z,26.20
2023-10-02T00:19:41.697Z,26.30
2023-10-02T00:22:32.519Z,26.30
2023-10-02T00:25:02.025Z,26.30
2023-10-02T00:27:32.936Z,26.30
2023-10-02T00:30:01.046Z,26.30
2023-10-02T00:32:33.134Z,26.40
2023-10-02T00:35:02.952Z,26.40
2023-10-02T00:37:47.315Z,26.40
2023-10-02T00:40:22.776Z,26.40
2023-10-02T00:42:57.209Z,26.50
2023-10-02T00:45:26.641Z,26.50
2023-10-02T00:47:54.982Z,26.50
2023-10-02T00:50:24.975Z,26.60
2023-10-02T00:53:23.481Z,26.60
2023-10-02T00:55:51.398Z,26.70
2023-10-02T00:58:21.715Z,26.70
2023-10-02T01:00:52.634Z,26.80
2023-10-02T01:03:20.542Z,26.80
2023-10-02T01:06:02.251Z,26.80
2023-10-02T01:08:45.475Z,26.90
2023-10-02T01:11:19.643Z,27.00
2023-10-02T01:13:47.769Z,27.00
2023-10-02T01:16:33.198Z,27.10
2023-10-02T01:19:01.034Z,27.10
2023-10-02T01:21:33.503Z,27.20
2023-10-02T01:24:19.514Z,27.30
2023-10-02T01:26:52.473Z,27.30
2023-10-02T01:29:20.303Z,27.30
2023-10-02T01:31:54.774Z,27.40
2023-10-02T01:34:41.806Z,27.40
2023-10-02T01:37:30.032Z,27.40
2023-10-02T01:40:18.857Z,27.50
2023-10-02T01:42:46.831Z,27.50
2023-10-02T01:45:15.118Z,27.60
2023-10-02T01:47:43.681Z,27.70
2023-10-02T01:50:11.870Z,27.70
2023-10-02T01:52:51.371Z,27.80
2023-10-02T01:55:31.610Z,27.90
2023-10-02T01:58:18.926Z,28.00
2023-10-02T02:00:47.535Z,28.00
2023-10-02T02:03:19.680Z,28.10
2023-10-02T02:05:48.583Z,28.20
2023-10-02T02:08:25.507Z,28.20
2023-10-02T02:10:55.871Z,28.30
2023-10-02T02:13:24.215Z,28.40
2023-10-02T02:16:09.268Z,28.50
2023-10-02T02:18:37.682Z,28.60
2023-10-02T02:21:06.066Z,28.80
2023-10-02T02:23:34.258Z,28.80
2023-10-02T02:26:02.320Z,28.90
2023-10-02T02:28:45.465Z,29.00
2023-10-02T02:31:32.199Z,29.10
2023-10-02T02:34:27.856Z,29.20
2023-10-02T02:36:56.153Z,29.30
2023-10-02T02:39:24.814Z,29.40
2023-10-02T02:42:18.422Z,29.60
2023-10-02T02:44:48.099Z,29.70
2023-10-02T02:47:17.348Z,29.90
2023-10-02T02:50:00.100Z,29.90
2023-10-02T02:52:29.531Z,30.00
2023-10-02T02:55:01.546Z,30.10
2023-10-02T02:57:30.884Z,30.10
2023-10-02T03:00:46.997Z,30.20
2023-10-02T03:08:40.805Z,30.40
2023-10-02T03:11:09.022Z,30.40
2023-10-02T03:13:41.801Z,30.40
2023-10-02T03:16:14.779Z,30.50
2023-10-02T03:18:45.399Z,30.50
2023-10-02T03:21:18.183Z,30.70
2023-10-02T03:23:46.655Z,30.80
2023-10-02T03:26:29.452Z,30.80
2023-10-02T03:29:04.518Z,30.80
2023-10-02T03:31:52.890Z,30.80
2023-10-02T03:34:32.477Z,30.80
2023-10-02T03:37:13.644Z,30.70
2023-10-02T03:40:01.701Z,30.70
2023-10-02T03:42:34.625Z,30.80
2023-10-02T03:45:05.308Z,30.90
2023-10-02T03:47:36.076Z,30.90
2023-10-02T03:50:10.680Z,31.00
2023-10-02T03:53:05.372Z,30.90
2023-10-02T03:55:36.189Z,31.00
2023-10-02T03:58:04.430Z,31.00
2023-10-02T04:00:52.934Z,31.10
2023-10-02T04:03:20.908Z,31.10
2023-10-02T04:05:49.124Z,31.10
2023-10-02T04:08:24.208Z,31.00
2023-10-02T04:11:00.427Z,31.00
2023-10-02T04:13:36.592Z,30.90
2023-10-02T04:16:27.983Z,30.90
2023-10-02T04:19:04.352Z,30.90
2023-10-02T04:21:37.700Z,30.90
2023-10-02T04:24:11.085Z,30.90
2023-10-02T04:26:43.547Z,30.80
2023-10-02T04:29:28.447Z,30.80
2023-10-02T04:32:21.968Z,30.80
2023-10-02T04:34:59.240Z,30.80
2023-10-02T04:37:36.197Z,30.80
2023-10-02T04:40:30.630Z,30.80
2023-10-02T04:43:22.788Z,30.80
2023-10-02T04:46:03.691Z,30.80
2023-10-02T04:48:41.426Z,30.80
2023-10-02T04:51:09.835Z,30.80
2023-10-02T04:53:38.725Z,30.80
2023-10-02T04:56:11.710Z,30.90
2023-10-02T04:58:41.744Z,31.10
2023-10-02T05:01:26.107Z,31.30
2023-10-02T05:03:58.008Z,31.40
2023-10-02T05:06:46.183Z,31.40
2023-10-02T05:09:20.913Z,31.40
2023-10-02T05:12:05.895Z,31.50
2023-10-02T05:14:53.385Z,31.50
2023-10-02T05:20:19.706Z,31.40
2023-10-02T05:22:59.226Z,31.30
2023-10-02T05:25:27.368Z,31.30
2023-10-02T05:27:57.237Z,31.30
2023-10-02T05:30:25.168Z,31.40
2023-10-02T05:32:58.744Z,31.40
2023-10-02T05:35:26.797Z,31.40
2023-10-02T05:37:56.464Z,31.50
2023-10-02T05:40:24.429Z,31.50
2023-10-02T05:43:03.027Z,31.50
2023-10-02T05:45:42.009Z,31.60
2023-10-02T05:48:13.481Z,31.60
2023-10-02T05:50:46.610Z,31.60
2023-10-02T05:53:15.133Z,31.50
2023-10-02T05:55:58.933Z,31.50
2023-10-02T05:58:32.883Z,31.40
2023-10-02T06:01:11.366Z,31.50
2023-10-02T06:03:39.829Z,31.50
2023-10-02T06:06:23.699Z,31.40
2023-10-02T06:09:05.204Z,31.40
2023-10-02T06:11:35.860Z,31.50
2023-10-02T06:14:15.999Z,31.50
2023-10-02T06:16:44.772Z,31.50
2023-10-02T06:19:16.610Z,31.60
2023-10-02T06:21:48.794Z,31.70
2023-10-02T06:24:22.029Z,31.70
2023-10-02T06:26:59.230Z,31.80
2023-10-02T06:29:30.170Z,31.80
2023-10-02T06:32:09.615Z,31.80
2023-10-02T06:34:38.738Z,31.80
2023-10-02T06:37:14.537Z,31.90
2023-10-02T06:40:04.512Z,32.00
2023-10-02T06:42:32.692Z,32.10
2023-10-02T06:45:10.854Z,32.20
2023-10-02T06:47:39.554Z,32.20
2023-10-02T06:50:29.387Z,32.30
2023-10-02T06:52:59.764Z,32.40
2023-10-02T06:55:29.000Z,32.40
2023-10-02T06:57:59.452Z,32.50
2023-10-02T07:00:47.877Z,32.60
2023-10-02T07:03:16.842Z,32.70
2023-10-02T07:05:49.741Z,32.80
2023-10-02T07:08:22.912Z,32.90
2023-10-02T07:10:52.100Z,32.90
2023-10-02T07:13:36.504Z,32.90
2023-10-02T07:16:05.837Z,32.90
2023-10-02T07:18:47.267Z,32.90
2023-10-02T07:21:18.095Z,32.90
2023-10-02T07:23:46.896Z,32.80
2023-10-02T07:26:16.520Z,32.70
2023-10-02T07:28:53.042Z,32.60
2023-10-02T07:31:24.603Z,32.60
2023-10-02T07:33:57.405Z,32.60
2023-10-02T07:36:28.696Z,32.60
2023-10-02T07:38:59.377Z,32.60
2023-10-02T07:41:28.588Z,32.70
2023-10-02T07:44:09.865Z,32.60
2023-10-02T07:46:38.364Z,32.70
2023-10-02T07:49:08.308Z,32.70
2023-10-02T07:51:41.581Z,32.80
2023-10-02T07:54:10.770Z,32.90
2023-10-02T07:56:41.161Z,32.90
2023-10-02T07:59:09.925Z,33.00
2023-10-02T08:09:50.052Z,32.80
2023-10-02T08:12:35.617Z,32.60
2023-10-02T08:15:07.848Z,32.60
2023-10-02T08:17:35.766Z,32.50
2023-10-02T08:20:22.429Z,32.50
2023-10-02T08:22:53.017Z,32.40
2023-10-02T08:28:01.389Z,32.40
2023-10-02T08:30:30.486Z,32.30
2023-10-02T08:33:23.675Z,32.20
2023-10-02T08:36:03.633Z,32.10
2023-10-02T08:38:31.545Z,32.00
2023-10-02T08:41:05.687Z,31.90
2023-10-02T08:43:34.539Z,31.80
2023-10-02T08:46:05.883Z,31.80
2023-10-02T08:48:36.257Z,31.70
2023-10-02T08:51:06.485Z,31.60
2023-10-02T08:53:35.021Z,31.50
2023-10-02T08:56:03.242Z,31.50
2023-10-02T08:58:31.221Z,31.50
2023-10-02T09:01:09.590Z,31.50
2023-10-02T09:03:45.372Z,31.60
2023-10-02T09:06:29.167Z,31.50
2023-10-02T09:09:18.673Z,31.50
2023-10-02T09:11:53.566Z,31.50
2023-10-02T09:14:23.660Z,31.50
2023-10-02T09:17:14.346Z,31.40
2023-10-02T09:27:59.068Z,31.40
2023-10-02T09:30:40.938Z,31.40
2023-10-02T09:33:26.125Z,31.40
2023-10-02T09:36:38.992Z,31.30
2023-10-02T09:38:58.054Z,31.30
2023-10-02T09:46:51.097Z,31.30
2023-10-02T09:49:27.119Z,31.20
2023-10-02T09:52:18.254Z,31.20
2023-10-02T09:55:02.298Z,31.20
2023-10-02T09:57:34.045Z,31.20
2023-10-02T10:00:26.643Z,31.20
2023-10-02T10:03:33.428Z,31.10
2023-10-02T10:06:11.148Z,31.10
2023-10-02T10:16:46.582Z,30.90
2023-10-02T10:19:15.452Z,30.80
2023-10-02T10:22:05.496Z,30.70
2023-10-02T10:24:38.764Z,30.70
2023-10-02T10:27:06.561Z,30.70
2023-10-02T10:29:44.079Z,30.60
2023-10-02T10:32:25.939Z,30.50
2023-10-02T10:35:16.733Z,30.50
2023-10-02T10:37:48.737Z,30.50
2023-10-02T10:40:45.908Z,30.40
2023-10-02T10:43:16.484Z,30.40
2023-10-02T10:45:45.824Z,30.30
2023-10-02T10:48:25.912Z,30.30
2023-10-02T10:51:08.502Z,30.20
2023-10-02T10:53:43.159Z,30.20
2023-10-02T10:56:20.108Z,30.10
2023-10-02T10:58:51.992Z,30.10
2023-10-02T11:01:24.564Z,30.00
2023-10-02T11:04:01.249Z,30.00
2023-10-02T11:06:31.453Z,30.00
2023-10-02T11:09:17.144Z,29.90
2023-10-02T11:11:51.263Z,29.90
2023-10-02T11:14:26.199Z,29.80
2023-10-02T11:16:55.992Z,29.80
2023-10-02T11:19:25.490Z,29.80
2023-10-02T11:22:18.222Z,29.70
2023-10-02T11:24:46.557Z,29.70
2023-10-02T11:27:16.848Z,29.70
2023-10-02T11:29:48.442Z,29.60
2023-10-02T11:32:25.737Z,29.60
2023-10-02T11:35:04.788Z,29.60
2023-10-02T11:37:34.375Z,29.50
2023-10-02T11:40:02.223Z,29.40
2023-10-02T11:42:30.289Z,29.40
2023-10-02T11:44:59.558Z,29.40
2023-10-02T11:47:29.952Z,29.40
2023-10-02T11:49:58.903Z,29.30
2023-10-02T11:52:26.741Z,29.30
2023-10-02T11:54:56.439Z,29.20
2023-10-02T11:57:24.515Z,29.20
2023-10-02T11:59:53.011Z,29.20
2023-10-02T12:02:20.955Z,29.30
2023-10-02T12:04:48.804Z,29.20
2023-10-02T12:07:18.756Z,29.20
2023-10-02T12:09:49.081Z,29.20
2023-10-02T12:12:17.798Z,29.20
2023-10-02T12:14:45.775Z,29.20
2023-10-02T12:17:13.659Z,29.20
2023-10-02T12:19:41.748Z,29.10
2023-10-02T12:22:10.391Z,29.10
2023-10-02T12:24:39.156Z,29.10
2023-10-02T12:27:12.376Z,29.00
2023-10-02T12:29:41.131Z,29.00
2023-10-02T12:32:12.030Z,28.90
2023-10-02T12:34:40.883Z,28.90
2023-10-02T12:37:08.857Z,28.80
2023-10-02T12:39:36.606Z,28.80
2023-10-02T12:42:05.256Z,28.80
2023-10-02T12:44:38.512Z,28.70
2023-10-02T12:47:06.667Z,28.70
2023-10-02T12:49:36.706Z,28.70
2023-10-02T12:52:06.750Z,28.70
2023-10-02T12:54:35.089Z,28.70
2023-10-02T12:57:03.773Z,28.70
2023-10-02T12:59:31.707Z,28.70
2023-10-02T13:01:59.890Z,28.70
2023-10-02T13:04:27.775Z,28.70
2023-10-02T13:06:55.635Z,28.70
2023-10-02T13:09:29.011Z,28.70
2023-10-02T13:11:57.631Z,28.70
2023-10-02T13:14:25.561Z,28.70
2023-10-02T13:16:54.303Z,28.80
2023-10-02T13:19:22.334Z,28.80
2023-10-02T13:21:54.448Z,28.80
2023-10-02T13:24:25.428Z,28.80
2023-10-02T13:26:55.048Z,28.80
2023-10-02T13:29:25.898Z,28.80
2023-10-02T13:31:53.825Z,28.80
2023-10-02T13:34:22.762Z,28.80
2023-10-02T13:36:50.883Z,28.80
2023-10-02T13:39:20.493Z,28.80
2023-10-02T13:41:48.657Z,28.80
2023-10-02T13:44:19.362Z,28.80
2023-10-02T13:46:51.200Z,28.80
2023-10-02T13:49:22.020Z,28.80
2023-10-02T13:51:50.951Z,28.80
2023-10-02T13:54:18.870Z,28.80
2023-10-02T13:56:47.803Z,28.70
2023-10-02T13:59:16.222Z,28.70
2023-10-02T14:01:44.652Z,28.70
2023-10-02T14:04:12.421Z,28.70
2023-10-02T14:06:40.282Z,28.60
2023-10-02T14:09:11.954Z,28.60
2023-10-02T14:11:41.859Z,28.50
2023-10-02T14:14:10.331Z,28.50
2023-10-02T14:16:38.435Z,28.40
2023-10-02T14:19:08.141Z,28.40
2023-10-02T14:21:36.634Z,28.40
2023-10-02T14:24:07.309Z,28.30
2023-10-02T14:26:35.089Z,28.30
2023-10-02T14:29:03.305Z,28.30
2023-10-02T14:31:35.538Z,28.30
2023-10-02T14:34:07.894Z,28.30
2023-10-02T14:36:36.704Z,28.30
2023-10-02T14:39:05.787Z,28.20
2023-10-02T14:41:34.098Z,28.20
2023-10-02T14:44:02.918Z,28.20
2023-10-02T14:46:31.672Z,28.20
2023-10-02T14:49:00.416Z,28.20
2023-10-02T14:51:28.330Z,28.20
2023-10-02T14:53:56.531Z,28.20
2023-10-02T14:56:24.385Z,28.20
2023-10-02T14:58:52.576Z,28.10
2023-10-02T15:01:21.154Z,28.10
2023-10-02T15:03:50.674Z,28.10
2023-10-02T15:06:19.671Z,28.20
2023-10-02T15:08:47.777Z,28.10
2023-10-02T15:11:17.090Z,28.20
2023-10-02T15:13:46.977Z,28.20
2023-10-02T15:16:17.008Z,28.20
2023-10-02T15:18:48.375Z,28.20
2023-10-02T15:21:20.577Z,28.20
2023-10-02T15:23:49.937Z,28.20
2023-10-02T15:26:19.728Z,28.20
2023-10-02T15:28:49.385Z,28.20
2023-10-02T15:31:17.438Z,28.20
2023-10-02T15:33:45.377Z,28.20
2023-10-02T15:36:13.469Z,28.10
2023-10-02T15:38:42.547Z,28.10
2023-10-02T15:41:29.894Z,28.10
2023-10-02T15:43:58.633Z,28.10
2023-10-02T15:46:30.255Z,28.10
2023-10-02T15:48:59.385Z,28.10
2023-10-02T15:51:27.460Z,28.10
2023-10-02T15:53:57.610Z,28.10
2023-10-02T15:56:26.290Z,28.10
2023-10-02T15:58:55.440Z,28.00
2023-10-02T16:01:24.162Z,28.00
2023-10-02T16:03:52.347Z,27.90
2023-10-02T16:06:20.522Z,27.90
2023-10-02T16:08:53.331Z,27.90
2023-10-02T16:11:22.358Z,27.90
2023-10-02T16:13:51.581Z,27.90
2023-10-02T16:16:24.421Z,27.80
2023-10-02T16:18:52.949Z,27.80
2023-10-02T16:21:24.959Z,27.80
2023-10-02T16:23:53.123Z,27.80
2023-10-02T16:26:21.953Z,27.70
2023-10-02T16:28:53.183Z,27.70
2023-10-02T16:31:26.687Z,27.70
2023-10-02T16:33:55.033Z,27.70
2023-10-02T16:36:27.778Z,27.60
2023-10-02T16:41:29.602Z,27.60
2023-10-02T16:43:57.483Z,27.60
2023-10-02T16:46:26.005Z,27.60
2023-10-02T16:48:54.345Z,27.60
2023-10-02T16:51:22.429Z,27.50
2023-10-02T16:53:50.222Z,27.50
2023-10-02T16:56:20.482Z,27.60
2023-10-02T16:58:48.417Z,27.50
2023-10-02T17:01:19.982Z,27.50
2023-10-02T17:03:48.294Z,27.50
2023-10-02T17:06:16.472Z,27.40
2023-10-02T17:08:44.341Z,27.40
2023-10-02T17:11:13.847Z,27.40
2023-10-02T17:13:44.851Z,27.40
2023-10-02T17:16:12.754Z,27.30
2023-10-02T17:18:40.706Z,27.40
2023-10-02T17:21:10.423Z,27.30
2023-10-02T17:23:38.326Z,27.30
2023-10-02T17:26:09.571Z,27.30
2023-10-02T17:28:37.633Z,27.30
2023-10-02T17:31:05.812Z,27.30
2023-10-02T17:33:35.426Z,27.30
2023-10-02T17:36:03.617Z,27.30
2023-10-02T17:38:31.885Z,27.30
2023-10-02T17:41:00.204Z,27.30
2023-10-02T17:43:30.351Z,27.30
2023-10-02T17:45:59.502Z,27.30
2023-10-02T17:48:27.334Z,27.20
2023-10-02T17:50:55.252Z,27.30
2023-10-02T17:53:23.312Z,27.20
2023-10-02T17:55:51.149Z,27.20
2023-10-02T17:58:19.717Z,27.20
2023-10-02T18:00:49.013Z,27.20
2023-10-02T18:03:17.857Z,27.20
2023-10-02T18:05:47.062Z,27.20
2023-10-02T18:08:15.604Z,27.20
2023-10-02T18:10:47.506Z,27.20
2023-10-02T18:13:15.411Z,27.20
2023-10-02T18:15:49.445Z,27.20
2023-10-02T18:18:17.399Z,27.10
2023-10-02T18:20:48.078Z,27.20
2023-10-02T18:23:16.164Z,27.20
2023-10-02T18:25:54.660Z,27.20
2023-10-02T18:28:23.146Z,27.10
2023-10-02T18:30:51.906Z,27.20
2023-10-02T18:33:20.094Z,27.10
2023-10-02T18:35:47.893Z,27.10
2023-10-02T18:38:15.738Z,27.10
2023-10-02T18:40:48.150Z,27.10
2023-10-02T18:43:18.864Z,27.20
2023-10-02T18:45:46.757Z,27.20
2023-10-02T18:48:16.485Z,27.20
2023-10-02T18:50:44.827Z,27.20
2023-10-02T18:53:12.710Z,27.20
2023-10-02T18:55:41.632Z,27.20
2023-10-02T18:58:10.409Z,27.10
2023-10-02T19:00:38.524Z,27.10
2023-10-02T19:03:06.954Z,27.20
2023-10-02T19:05:38.207Z,27.20
2023-10-02T19:08:06.310Z,27.20
2023-10-02T19:10:34.615Z,27.20
2023-10-02T19:13:02.445Z,27.20
2023-10-02T19:15:30.801Z,27.20
2023-10-02T19:17:58.834Z,27.20
2023-10-02T19:20:26.932Z,27.20
2023-10-02T19:22:55.890Z,27.20
2023-10-02T19:25:24.480Z,27.20
2023-10-02T19:27:53.949Z,27.20
2023-10-02T19:30:22.506Z,27.20
2023-10-02T19:32:50.463Z,27.20
2023-10-02T19:35:18.635Z,27.20
2023-10-02T19:37:46.744Z,27.20
2023-10-02T19:40:17.988Z,27.20
2023-10-02T19:42:45.890Z,27.20
2023-10-02T19:45:13.656Z,27.20
2023-10-02T19:47:45.018Z,27.20
2023-10-02T19:50:13.370Z,27.20
2023-10-02T19:52:43.486Z,27.20
2023-10-02T19:55:15.060Z,27.20
2023-10-02T19:57:42.979Z,27.20
2023-10-02T20:00:13.027Z,27.20
2023-10-02T20:02:44.254Z,27.20
2023-10-02T20:05:14.132Z,27.10
2023-10-02T20:07:43.622Z,27.10
2023-10-02T20:10:13.407Z,27.10
2023-10-02T20:12:44.726Z,27.20
2023-10-02T20:15:12.867Z,27.20
2023-10-02T20:17:40.742Z,27.10
2023-10-02T20:20:12.524Z,27.10
2023-10-02T20:22:41.453Z,27.10
2023-10-02T20:25:09.971Z,27.10
2023-10-02T20:27:39.155Z,27.10
2023-10-02T20:30:07.389Z,27.10
2023-10-02T20:32:37.341Z,27.10
2023-10-02T20:35:09.726Z,27.10
2023-10-02T20:37:38.009Z,27.10
2023-10-02T20:40:08.346Z,27.10
2023-10-02T20:42:36.493Z,27.10
2023-10-02T20:45:04.996Z,27.10
2023-10-02T20:47:32.877Z,27.10
2023-10-02T20:50:01.274Z,27.00
2023-10-02T20:52:29.170Z,27.00
2023-10-02T20:54:57.062Z,27.00
2023-10-02T20:57:27.587Z,27.00
2023-10-02T20:59:55.461Z,27.00
2023-10-02T21:02:23.474Z,27.00
2023-10-02T21:04:51.927Z,27.00
2023-10-02T21:07:19.665Z,27.00
2023-10-02T21:09:47.746Z,27.00
2023-10-02T21:12:15.708Z,27.00
2023-10-02T21:14:43.556Z,27.00
2023-10-02T21:17:11.798Z,27.00
2023-10-02T21:19:39.713Z,27.00
2023-10-02T21:22:08.476Z,27.00
2023-10-02T21:24:37.053Z,27.00
2023-10-02T21:27:06.817Z,27.00
2023-10-02T21:29:34.983Z,27.00
2023-10-02T21:32:03.703Z,27.00
2023-10-02T21:34:31.472Z,27.00
2023-10-02T21:37:00.326Z,27.00
2023-10-02T21:39:28.260Z,27.00
2023-10-02T21:41:56.013Z,27.00
2023-10-02T21:44:24.231Z,26.90
2023-10-02T21:46:52.008Z,26.90
2023-10-02T21:49:19.845Z,26.90
2023-10-02T21:51:47.674Z,26.80
2023-10-02T21:54:16.069Z,26.80
2023-10-02T21:56:43.948Z,26.90
2023-10-02T21:59:12.330Z,26.80
2023-10-02T22:01:40.203Z,26.80
2023-10-02T22:04:08.145Z,26.80
2023-10-02T22:06:36.566Z,26.80
2023-10-02T22:09:04.653Z,26.80
2023-10-02T22:11:35.464Z,26.70
2023-10-02T22:14:04.427Z,26.70
2023-10-02T22:16:32.550Z,26.80
2023-10-02T22:19:00.615Z,26.70
2023-10-02T22:21:28.545Z,26.80
2023-10-02T22:23:57.141Z,26.70
2023-10-02T22:26:25.938Z,26.70
2023-10-02T22:28:55.003Z,26.70
2023-10-02T22:31:25.647Z,26.70
2023-10-02T22:33:55.315Z,26.70
2023-10-02T22:36:25.241Z,26.70
2023-10-02T22:38:54.089Z,26.70
2023-10-02T22:41:22.136Z,26.70
2023-10-02T22:43:53.963Z,26.70
2023-10-02T22:46:22.756Z,26.70
2023-10-02T22:48:51.657Z,26.70
2023-10-02T22:51:19.953Z,26.70
2023-10-02T22:53:49.515Z,26.70
2023-10-02T22:56:17.441Z,26.70
2023-10-02T22:58:46.135Z,26.70
2023-10-02T23:01:14.348Z,26.70
2023-10-02T23:03:43.268Z,26.60
2023-10-02T23:06:13.446Z,26.60
2023-10-02T23:08:42.271Z,26.60
2023-10-02T23:11:16.237Z,26.60
2023-10-02T23:13:44.141Z,26.60
2023-10-02T23:16:14.501Z,26.60
2023-10-02T23:18:42.401Z,26.50
2023-10-02T23:21:11.387Z,26.50
2023-10-02T23:23:41.071Z,26.60
2023-10-02T23:26:16.611Z,26.60
2023-10-02T23:28:46.242Z,26.60
2023-10-02T23:31:14.899Z,26.70
2023-10-02T23:33:43.479Z,26.70
2023-10-02T23:36:12.152Z,26.70
2023-10-02T23:38:40.108Z,26.70
2023-10-02T23:41:08.540Z,26.70
2023-10-02T23:43:37.477Z,26.70
2023-10-02T23:46:05.600Z,26.80
2023-10-02T23:48:38.851Z,26.80
2023-10-02T23:51:14.175Z,26.80
2023-10-02T23:53:43.233Z,26.80
2023-10-02T23:56:15.648Z,26.90
2023-10-02T23:58:44.360Z,26.90
